createdAt,value
2019-05-19T00:02:11.099Z,9.80
2019-05-19T00:04:43.107Z,8.00
2019-05-19T00:07:15.282Z,8.87
2019-05-19T00:09:47.663Z,9.63
2019-05-19T00:12:19.672Z,10.60
2019-05-19T00:14:51.893Z,10.27
2019-05-19T00:17:23.990Z,9.13
2019-05-19T00:19:56.175Z,9.00
2019-05-19T00:22:28.239Z,10.23
2019-05-19T00:25:00.348Z,9.07
2019-05-19T00:27:32.385Z,10.50
2019-05-19T00:30:04.356Z,9.30
2019-05-19T00:32:36.489Z,8.93
2019-05-19T00:35:08.767Z,11.10
2019-05-19T00:37:41.010Z,10.17
2019-05-19T00:40:13.373Z,11.03
2019-05-19T00:42:45.462Z,8.87
2019-05-19T00:45:17.946Z,13.23
2019-05-19T00:47:50.050Z,8.90
2019-05-19T00:50:22.251Z,9.60
2019-05-19T00:52:54.437Z,8.03
2019-05-19T00:55:26.559Z,9.80
2019-05-19T00:57:59.707Z,8.40
2019-05-19T01:00:31.750Z,9.73
2019-05-19T01:03:03.806Z,8.57
2019-05-19T01:05:35.802Z,10.37
2019-05-19T01:08:07.919Z,11.43
2019-05-19T01:10:39.935Z,12.27
2019-05-19T01:13:12.040Z,10.77
2019-05-19T01:15:44.185Z,11.00
2019-05-19T01:18:16.217Z,8.93
2019-05-19T01:20:48.341Z,10.30
2019-05-19T01:23:20.282Z,11.70
2019-05-19T01:25:52.196Z,11.20
2019-05-19T01:28:24.253Z,13.37
2019-05-19T01:30:56.395Z,9.40
2019-05-19T01:33:28.430Z,12.77
2019-05-19T01:36:00.475Z,12.30
2019-05-19T01:38:32.432Z,9.20
2019-05-19T01:41:04.505Z,10.97
2019-05-19T01:43:36.507Z,9.33
2019-05-19T01:46:08.624Z,9.40
2019-05-19T01:48:40.636Z,9.63
2019-05-19T01:51:12.612Z,8.40
2019-05-19T01:53:44.527Z,9.23
2019-05-19T01:56:16.647Z,10.00
2019-05-19T01:58:48.641Z,8.60
2019-05-19T02:01:20.562Z,11.40
2019-05-19T02:03:52.697Z,8.20
2019-05-19T02:06:24.874Z,8.40
2019-05-19T02:08:56.974Z,10.00
2019-05-19T02:11:28.993Z,9.60
2019-05-19T02:14:02.209Z,8.37
2019-05-19T02:16:34.239Z,8.20
2019-05-19T02:19:06.316Z,9.37
2019-05-19T02:21:38.312Z,6.73
2019-05-19T02:24:10.342Z,6.90
2019-05-19T02:26:42.318Z,7.53
2019-05-19T02:29:14.433Z,9.77
2019-05-19T02:31:46.486Z,6.83
2019-05-19T02:34:18.654Z,7.47
2019-05-19T02:36:50.782Z,6.80
2019-05-19T02:39:22.896Z,9.20
2019-05-19T02:41:57.189Z,8.07
2019-05-19T02:44:31.278Z,7.20
2019-05-19T02:47:04.927Z,7.40
2019-05-19T02:49:39.576Z,8.30
2019-05-19T02:52:13.537Z,7.87
2019-05-19T02:54:46.136Z,7.47
2019-05-19T02:57:19.201Z,6.83
2019-05-19T02:59:52.407Z,7.47
2019-05-19T03:02:24.384Z,7.90
2019-05-19T03:04:56.411Z,7.37
2019-05-19T03:07:28.403Z,6.93
2019-05-19T03:10:00.334Z,6.17
2019-05-19T03:12:32.322Z,7.53
2019-05-19T03:15:04.489Z,8.33
2019-05-19T03:17:36.506Z,5.50
2019-05-19T03:20:08.664Z,8.20
2019-05-19T03:22:40.626Z,9.03
2019-05-19T03:25:12.783Z,8.00
2019-05-19T03:27:44.731Z,6.40
2019-05-19T03:30:34.409Z,6.77
2019-05-19T03:33:07.606Z,7.17
2019-05-19T03:35:39.609Z,7.73
2019-05-19T03:38:11.874Z,6.77
2019-05-19T03:40:44.035Z,6.90
2019-05-19T03:43:16.113Z,6.87
2019-05-19T03:45:48.226Z,6.60
2019-05-19T03:48:20.529Z,7.40
2019-05-19T03:50:52.607Z,9.87
2019-05-19T03:53:24.708Z,8.80
2019-05-19T03:55:56.694Z,8.07
2019-05-19T03:58:28.789Z,7.90
2019-05-19T04:01:00.904Z,11.13
2019-05-19T04:03:33.175Z,9.67
2019-05-19T04:06:05.547Z,10.80
2019-05-19T04:08:37.821Z,9.73
2019-05-19T04:11:09.983Z,13.87
2019-05-19T04:13:42.020Z,14.07
2019-05-19T04:16:14.115Z,10.60
2019-05-19T04:18:46.239Z,9.07
2019-05-19T04:21:18.441Z,12.87
2019-05-19T04:23:50.583Z,10.07
2019-05-19T04:26:22.699Z,14.27
2019-05-19T04:28:54.885Z,11.20
2019-05-19T04:31:27.073Z,12.30
2019-05-19T04:33:59.318Z,10.17
2019-05-19T04:36:31.758Z,13.63
2019-05-19T04:39:04.924Z,11.80
2019-05-19T04:41:40.166Z,13.67
2019-05-19T04:44:10.993Z,12.10
2019-05-19T04:46:43.410Z,12.57
2019-05-19T04:49:15.869Z,13.03
2019-05-19T04:52:05.206Z,11.10
2019-05-19T04:54:22.115Z,10.17
2019-05-19T04:56:54.393Z,11.70
2019-05-19T04:59:26.657Z,14.03
2019-05-19T05:01:59.116Z,11.33
2019-05-19T05:04:31.414Z,11.00
2019-05-19T05:07:03.837Z,12.97
2019-05-19T05:09:36.293Z,14.93
2019-05-19T05:12:08.934Z,14.97
2019-05-19T05:14:41.386Z,12.67
2019-05-19T05:17:13.692Z,12.50
2019-05-19T05:19:46.152Z,22.30
2019-05-19T05:22:22.173Z,16.13
2019-05-19T05:24:52.430Z,10.33
2019-05-19T05:27:24.878Z,9.83
2019-05-19T05:29:57.278Z,12.70
2019-05-19T05:32:29.543Z,11.80
2019-05-19T05:35:01.698Z,10.93
2019-05-19T05:37:34.050Z,9.67
2019-05-19T05:40:07.419Z,9.73
2019-05-19T05:42:39.659Z,10.03
2019-05-19T05:45:12.150Z,12.23
2019-05-19T05:47:44.696Z,10.47
2019-05-19T05:50:17.438Z,10.63
2019-05-19T05:52:49.957Z,14.00
2019-05-19T05:55:22.350Z,11.00
2019-05-19T05:57:54.562Z,14.80
2019-05-19T06:00:27.085Z,11.70
2019-05-19T06:02:59.554Z,15.80
2019-05-19T06:05:31.938Z,12.13
2019-05-19T06:08:04.205Z,14.80
2019-05-19T06:10:36.725Z,14.03
2019-05-19T06:13:09.056Z,13.93
2019-05-19T06:15:41.596Z,12.60
2019-05-19T06:18:15.028Z,14.53
2019-05-19T06:20:49.305Z,14.50
2019-05-19T06:23:22.000Z,15.17
2019-05-19T06:25:54.477Z,14.77
2019-05-19T06:28:26.960Z,12.97
2019-05-19T06:31:00.983Z,14.40
2019-05-19T06:33:33.414Z,13.40
2019-05-19T06:36:05.853Z,10.90
2019-05-19T06:38:41.457Z,15.63
2019-05-19T06:41:13.790Z,14.73
2019-05-19T06:43:45.865Z,16.73
2019-05-19T06:46:18.332Z,11.70
2019-05-19T06:48:50.605Z,14.07
2019-05-19T06:51:28.329Z,14.17
2019-05-19T06:54:06.077Z,12.73
2019-05-19T06:56:39.972Z,13.03
2019-05-19T06:59:34.019Z,10.70
2019-05-19T07:02:06.844Z,13.20
2019-05-19T07:04:39.375Z,16.17
2019-05-19T07:07:11.781Z,12.93
2019-05-19T07:09:57.370Z,11.90
2019-05-19T07:12:18.368Z,11.50
2019-05-19T07:14:50.990Z,11.40
2019-05-19T07:17:23.506Z,12.07
2019-05-19T07:19:56.358Z,11.97
2019-05-19T07:22:29.932Z,11.50
2019-05-19T07:25:02.481Z,10.63
2019-05-19T07:27:34.811Z,9.53
2019-05-19T07:30:07.684Z,12.80
2019-05-19T07:32:39.970Z,11.70
2019-05-19T07:35:12.581Z,11.03
2019-05-19T07:37:44.833Z,12.30
2019-05-19T07:40:17.694Z,10.10
2019-05-19T07:42:50.183Z,11.13
2019-05-19T07:45:22.998Z,9.63
2019-05-19T07:47:55.317Z,8.27
2019-05-19T07:50:30.404Z,9.80
2019-05-19T07:53:02.953Z,8.10
2019-05-19T07:55:35.283Z,8.20
2019-05-19T07:58:07.627Z,9.00
2019-05-19T08:00:42.468Z,9.27
2019-05-19T08:03:21.240Z,8.80
2019-05-19T08:05:59.012Z,8.13
2019-05-19T08:08:36.950Z,6.67
2019-05-19T08:11:09.334Z,8.53
2019-05-19T08:13:41.625Z,7.00
2019-05-19T08:16:28.349Z,9.13
2019-05-19T08:19:01.463Z,7.73
2019-05-19T08:21:33.603Z,8.20
2019-05-19T08:24:06.170Z,5.83
2019-05-19T08:26:38.550Z,12.27
2019-05-19T08:29:10.979Z,7.83
2019-05-19T08:31:45.388Z,9.03
2019-05-19T08:34:17.671Z,11.50
2019-05-19T08:36:50.233Z,6.73
2019-05-19T08:39:22.551Z,8.77
2019-05-19T08:41:54.702Z,7.50
2019-05-19T08:44:27.286Z,8.13
2019-05-19T08:46:59.680Z,10.20
2019-05-19T08:49:32.244Z,13.97
2019-05-19T08:52:04.545Z,8.00
2019-05-19T08:54:36.728Z,6.73
2019-05-19T08:57:08.903Z,8.10
2019-05-19T08:59:41.191Z,7.13
2019-05-19T09:02:13.628Z,7.90
2019-05-19T09:04:45.887Z,9.33
2019-05-19T09:07:18.218Z,11.77
2019-05-19T09:09:50.580Z,6.57
2019-05-19T09:12:23.095Z,8.57
2019-05-19T09:14:55.622Z,6.23
2019-05-19T09:17:27.939Z,9.60
2019-05-19T09:20:00.110Z,8.13
2019-05-19T09:22:32.553Z,7.53
2019-05-19T09:25:05.415Z,7.93
2019-05-19T09:27:37.730Z,19.67
2019-05-19T09:30:13.090Z,6.80
2019-05-19T09:32:59.268Z,8.07
2019-05-19T09:35:31.586Z,9.07
2019-05-19T09:38:03.930Z,15.70
2019-05-19T09:40:36.433Z,8.50
2019-05-19T09:43:10.783Z,5.80
2019-05-19T09:45:43.527Z,10.70
2019-05-19T09:48:16.143Z,7.53
2019-05-19T09:50:48.475Z,8.27
2019-05-19T09:53:28.960Z,6.60
2019-05-19T09:56:01.371Z,8.87
2019-05-19T09:58:33.722Z,9.23
2019-05-19T10:01:06.133Z,8.80
2019-05-19T10:03:38.613Z,8.83
2019-05-19T10:06:11.048Z,9.83
2019-05-19T10:09:00.406Z,10.27
2019-05-19T10:12:15.967Z,10.80
2019-05-19T10:14:48.491Z,16.10
2019-05-19T10:17:20.914Z,8.63
2019-05-19T10:19:53.268Z,8.43
2019-05-19T10:22:25.401Z,9.93
2019-05-19T10:25:18.215Z,9.77
2019-05-19T10:27:31.520Z,10.70
2019-05-19T10:30:03.819Z,8.23
2019-05-19T10:32:46.093Z,13.47
2019-05-19T10:35:18.495Z,8.33
2019-05-19T10:37:51.027Z,7.00
2019-05-19T10:40:23.606Z,6.63
2019-05-19T10:42:55.953Z,5.77
2019-05-19T10:45:28.414Z,5.23
2019-05-19T10:48:00.989Z,7.00
2019-05-19T10:50:34.110Z,7.83
2019-05-19T10:53:12.548Z,5.30
2019-05-19T10:55:47.221Z,4.50
2019-05-19T10:58:46.916Z,9.97
2019-05-19T11:01:19.910Z,5.53
2019-05-19T11:03:51.997Z,5.97
2019-05-19T11:06:24.213Z,8.37
2019-05-19T11:08:56.480Z,9.00
2019-05-19T11:11:28.828Z,6.10
2019-05-19T11:14:01.039Z,6.23
2019-05-19T11:16:33.448Z,5.20
2019-05-19T11:19:05.794Z,8.40
2019-05-19T11:21:38.046Z,4.63
2019-05-19T11:24:10.279Z,9.53
2019-05-19T11:26:42.748Z,6.87
2019-05-19T11:29:15.069Z,6.40
2019-05-19T11:31:47.138Z,9.30
2019-05-19T11:34:19.526Z,8.07
2019-05-19T11:36:52.174Z,7.17
2019-05-19T11:39:24.836Z,5.73
2019-05-19T11:41:57.347Z,5.53
2019-05-19T11:44:29.790Z,6.90
2019-05-19T11:47:02.207Z,5.67
2019-05-19T11:49:34.900Z,5.03
2019-05-19T11:52:07.497Z,4.10
2019-05-19T11:54:39.968Z,6.93
2019-05-19T11:57:12.106Z,5.87
2019-05-19T11:59:44.673Z,4.60
2019-05-19T12:02:17.015Z,4.63
2019-05-19T12:04:49.519Z,5.50
2019-05-19T12:07:21.851Z,6.13
2019-05-19T12:09:54.068Z,3.70
2019-05-19T12:12:26.357Z,4.67
2019-05-19T12:15:01.496Z,4.60
2019-05-19T12:17:34.032Z,6.77
2019-05-19T12:20:12.250Z,5.97
2019-05-19T12:22:44.895Z,6.50
2019-05-19T12:25:17.636Z,5.27
2019-05-19T12:27:50.040Z,7.20
2019-05-19T12:30:22.928Z,5.10
2019-05-19T12:32:59.053Z,4.80
2019-05-19T12:35:30.922Z,6.47
2019-05-19T12:38:03.410Z,4.50
2019-05-19T12:40:35.501Z,6.53
2019-05-19T12:43:08.062Z,6.30
2019-05-19T12:45:40.658Z,4.43
2019-05-19T12:48:12.976Z,6.07
2019-05-19T12:50:44.995Z,6.37
2019-05-19T12:53:18.670Z,5.10
2019-05-19T12:55:50.773Z,6.23
2019-05-19T12:58:23.029Z,7.43
2019-05-19T13:00:55.135Z,4.47
2019-05-19T13:03:27.436Z,4.30
2019-05-19T13:05:59.935Z,7.97
2019-05-19T13:08:32.538Z,7.90
2019-05-19T13:11:05.151Z,4.33
2019-05-19T13:13:37.675Z,6.40
2019-05-19T13:16:10.327Z,5.43
2019-05-19T13:19:01.835Z,6.30
2019-05-19T13:21:43.591Z,5.33
2019-05-19T13:24:16.755Z,8.53
2019-05-19T13:26:56.335Z,5.10
2019-05-19T13:29:23.084Z,5.27
2019-05-19T13:31:55.661Z,7.00
2019-05-19T13:34:28.002Z,7.23
2019-05-19T13:37:02.177Z,4.17
2019-05-19T13:39:34.420Z,8.30
2019-05-19T13:42:06.642Z,5.37
2019-05-19T13:44:39.083Z,5.60
2019-05-19T13:47:11.768Z,5.17
2019-05-19T13:49:44.216Z,5.33
2019-05-19T13:52:19.128Z,5.93
2019-05-19T13:54:51.448Z,5.63
2019-05-19T13:57:23.812Z,5.27
2019-05-19T13:59:56.065Z,7.57
2019-05-19T14:02:28.181Z,7.07
2019-05-19T14:05:00.547Z,5.10
2019-05-19T14:07:33.200Z,5.60
2019-05-19T14:10:05.882Z,6.77
2019-05-19T14:12:38.257Z,6.90
2019-05-19T14:15:11.276Z,9.00
2019-05-19T14:17:43.380Z,7.70
2019-05-19T14:20:16.447Z,5.07
2019-05-19T14:22:49.016Z,6.43
2019-05-19T14:25:21.560Z,6.03
2019-05-19T14:27:54.126Z,5.90
2019-05-19T14:30:26.663Z,7.10
2019-05-19T14:32:59.111Z,12.80
2019-05-19T14:35:31.668Z,4.63
2019-05-19T14:38:04.597Z,4.50
2019-05-19T14:40:37.068Z,4.97
2019-05-19T14:43:09.369Z,6.77
2019-05-19T14:45:41.754Z,3.40
2019-05-19T14:48:14.405Z,5.63
2019-05-19T14:50:46.886Z,4.63
2019-05-19T14:53:19.416Z,3.90
2019-05-19T14:55:52.220Z,5.47
2019-05-19T14:58:24.848Z,4.83
2019-05-19T15:00:57.360Z,7.67
2019-05-19T15:03:29.966Z,5.83
2019-05-19T15:06:02.158Z,3.73
2019-05-19T15:08:34.995Z,4.60
2019-05-19T15:11:07.558Z,4.57
2019-05-19T15:13:43.100Z,7.60
2019-05-19T15:16:15.638Z,6.47
2019-05-19T15:18:51.283Z,5.23
2019-05-19T15:21:24.166Z,3.90
2019-05-19T15:23:56.650Z,4.97
2019-05-19T15:26:29.033Z,4.97
2019-05-19T15:29:01.618Z,5.67
2019-05-19T15:31:34.064Z,5.53
2019-05-19T15:34:06.321Z,4.97
2019-05-19T15:36:39.194Z,6.83
2019-05-19T15:39:14.455Z,6.80
2019-05-19T15:41:45.704Z,5.20
2019-05-19T15:44:18.217Z,8.40
2019-05-19T15:46:50.991Z,6.73
2019-05-19T15:49:23.560Z,6.77
2019-05-19T15:52:03.744Z,7.60
2019-05-19T15:54:33.320Z,5.07
2019-05-19T15:57:06.167Z,7.10
2019-05-19T15:59:38.494Z,6.97
2019-05-19T16:02:11.084Z,7.73
2019-05-19T16:04:43.202Z,6.40
2019-05-19T16:07:28.001Z,6.27
2019-05-19T16:10:07.132Z,4.90
2019-05-19T16:12:39.673Z,4.77
2019-05-19T16:15:12.535Z,7.40
2019-05-19T16:17:45.128Z,6.97
2019-05-19T16:20:18.172Z,8.83
2019-05-19T16:22:50.980Z,6.80
2019-05-19T16:25:24.182Z,6.30
2019-05-19T16:27:56.514Z,8.13
2019-05-19T16:30:29.097Z,6.10
2019-05-19T16:33:01.401Z,6.60
2019-05-19T16:35:33.958Z,4.63
2019-05-19T16:38:06.454Z,8.70
2019-05-19T16:40:38.821Z,7.23
2019-05-19T16:43:11.500Z,6.27
2019-05-19T16:45:43.914Z,8.13
2019-05-19T16:48:16.353Z,7.57
2019-05-19T16:50:48.802Z,9.90
2019-05-19T16:53:21.458Z,11.03
2019-05-19T16:55:54.084Z,10.70
2019-05-19T16:58:26.830Z,8.30
2019-05-19T17:00:59.467Z,8.33
2019-05-19T17:03:31.879Z,9.33
2019-05-19T17:06:04.303Z,13.03
2019-05-19T17:08:36.941Z,8.73
2019-05-19T17:11:17.999Z,12.53
2019-05-19T17:13:43.190Z,8.40
2019-05-19T17:16:15.836Z,8.67
2019-05-19T17:18:48.591Z,8.57
2019-05-19T17:21:20.996Z,13.67
2019-05-19T17:23:53.276Z,7.27
2019-05-19T17:26:25.716Z,9.03
2019-05-19T17:29:00.877Z,10.03
2019-05-19T17:31:32.334Z,7.53
2019-05-19T17:34:04.950Z,10.87
2019-05-19T17:36:37.681Z,7.77
2019-05-19T17:39:10.534Z,7.23
2019-05-19T17:41:44.574Z,7.90
2019-05-19T17:44:20.164Z,5.93
2019-05-19T17:46:55.854Z,10.03
2019-05-19T17:49:35.179Z,8.93
2019-05-19T17:52:09.226Z,9.67
2019-05-19T17:54:43.627Z,7.20
2019-05-19T17:57:16.614Z,7.00
2019-05-19T17:59:52.364Z,6.67
2019-05-19T18:02:24.830Z,8.10
2019-05-19T18:04:57.436Z,10.03
2019-05-19T18:07:30.043Z,9.90
2019-05-19T18:10:02.405Z,6.87
2019-05-19T18:12:35.085Z,6.30
2019-05-19T18:15:07.845Z,6.87
2019-05-19T18:17:40.183Z,5.37
2019-05-19T18:20:23.951Z,8.20
2019-05-19T18:22:52.805Z,10.67
2019-05-19T18:25:25.548Z,9.57
2019-05-19T18:28:01.090Z,5.80
2019-05-19T18:30:33.770Z,7.37
2019-05-19T18:33:07.543Z,5.83
2019-05-19T18:35:40.331Z,5.17
2019-05-19T18:38:12.955Z,7.27
2019-05-19T18:40:46.084Z,4.23
2019-05-19T18:43:18.601Z,6.80
2019-05-19T18:45:50.887Z,5.07
2019-05-19T18:48:23.537Z,6.40
2019-05-19T18:50:56.243Z,6.60
2019-05-19T18:53:28.926Z,4.67
2019-05-19T18:56:04.304Z,5.27
2019-05-19T18:58:37.248Z,5.87
2019-05-19T19:01:12.947Z,5.83
2019-05-19T19:03:48.270Z,8.10
2019-05-19T19:06:22.699Z,6.77
2019-05-19T19:08:55.292Z,4.80
2019-05-19T19:11:27.432Z,6.30
2019-05-19T19:13:59.802Z,7.10
2019-05-19T19:16:32.823Z,6.50
2019-05-19T19:19:15.486Z,7.77
2019-05-19T19:21:48.825Z,8.90
2019-05-19T19:24:21.772Z,6.53
2019-05-19T19:26:57.293Z,4.50
2019-05-19T19:29:29.919Z,8.50
2019-05-19T19:32:02.296Z,5.63
2019-05-19T19:34:36.065Z,6.80
2019-05-19T19:37:11.941Z,5.03
2019-05-19T19:39:44.747Z,4.13
2019-05-19T19:42:17.522Z,5.70
2019-05-19T19:44:51.793Z,6.23
2019-05-19T19:47:27.570Z,5.43
2019-05-19T19:50:00.380Z,5.53
2019-05-19T19:52:34.437Z,4.07
2019-05-19T19:55:07.127Z,4.73
2019-05-19T19:57:39.947Z,3.73
2019-05-19T20:00:18.781Z,6.70
2019-05-19T20:02:54.002Z,6.93
2019-05-19T20:05:26.491Z,5.13
2019-05-19T20:07:59.045Z,4.90
2019-05-19T20:10:31.606Z,4.23
2019-05-19T20:13:04.951Z,5.63
2019-05-19T20:15:38.327Z,5.07
2019-05-19T20:18:10.911Z,6.53
2019-05-19T20:20:43.348Z,4.63
2019-05-19T20:23:17.489Z,6.27
2019-05-19T20:25:50.001Z,6.70
2019-05-19T20:28:22.459Z,5.07
2019-05-19T20:30:54.919Z,5.90
2019-05-19T20:33:27.281Z,4.20
2019-05-19T20:35:59.831Z,7.63
2019-05-19T20:38:32.147Z,5.23
2019-05-19T20:41:04.731Z,3.33
2019-05-19T20:43:40.303Z,4.93
2019-05-19T20:46:13.339Z,3.80
2019-05-19T20:48:49.723Z,3.97
2019-05-19T20:51:22.849Z,5.83
2019-05-19T20:53:55.394Z,3.67
2019-05-19T20:56:28.021Z,5.27
2019-05-19T20:59:00.889Z,5.80
2019-05-19T21:01:35.418Z,4.33
2019-05-19T21:04:08.359Z,4.87
2019-05-19T21:06:40.670Z,4.80
2019-05-19T21:09:13.377Z,3.50
2019-05-19T21:11:46.165Z,5.73
2019-05-19T21:14:18.556Z,6.93
2019-05-19T21:16:51.395Z,8.87
2019-05-19T21:19:24.383Z,8.27
2019-05-19T21:21:56.848Z,4.83
2019-05-19T21:24:29.601Z,4.17
2019-05-19T21:27:03.422Z,8.67
2019-05-19T21:29:36.224Z,6.63
2019-05-19T21:32:08.853Z,5.10
2019-05-19T21:34:42.907Z,3.53
2019-05-19T21:37:15.483Z,4.47
2019-05-19T21:39:48.288Z,6.50
2019-05-19T21:42:20.954Z,2.97
2019-05-19T21:44:53.625Z,4.20
2019-05-19T21:47:26.414Z,3.73
2019-05-19T21:49:58.847Z,4.73
2019-05-19T21:52:31.551Z,3.10
2019-05-19T21:55:04.234Z,3.53
2019-05-19T21:57:40.155Z,5.20
2019-05-19T22:00:14.031Z,3.40
2019-05-19T22:02:46.725Z,3.77
2019-05-19T22:05:19.637Z,5.27
2019-05-19T22:08:04.841Z,3.43
2019-05-19T22:10:37.514Z,2.93
2019-05-19T22:13:10.408Z,7.07
2019-05-19T22:15:43.285Z,3.10
2019-05-19T22:18:15.740Z,3.83
2019-05-19T22:20:48.341Z,5.00
2019-05-19T22:23:21.170Z,2.63
2019-05-19T22:25:54.422Z,3.00
2019-05-19T22:28:27.096Z,6.60
2019-05-19T22:30:59.862Z,6.87
2019-05-19T22:33:32.525Z,2.60
2019-05-19T22:36:05.211Z,5.40
2019-05-19T22:38:37.741Z,3.27
2019-05-19T22:41:10.187Z,2.90
2019-05-19T22:43:42.907Z,4.53
2019-05-19T22:46:15.463Z,4.57
2019-05-19T22:48:48.288Z,5.30
2019-05-19T22:51:22.785Z,2.87
2019-05-19T22:53:55.350Z,5.77
2019-05-19T22:56:27.846Z,5.83
2019-05-19T22:59:00.238Z,3.23
2019-05-19T23:01:32.762Z,4.03
2019-05-19T23:04:05.355Z,5.27
2019-05-19T23:06:38.022Z,4.07
2019-05-19T23:09:10.759Z,7.17
2019-05-19T23:11:43.303Z,5.07
2019-05-19T23:14:15.797Z,4.37
2019-05-19T23:16:48.289Z,3.77
2019-05-19T23:19:20.877Z,5.20
2019-05-19T23:21:53.631Z,3.77
2019-05-19T23:24:26.332Z,5.17
2019-05-19T23:26:59.573Z,4.13
2019-05-19T23:29:32.195Z,4.07
2019-05-19T23:32:07.332Z,7.50
2019-05-19T23:34:42.052Z,9.50
2019-05-19T23:37:14.723Z,6.97
2019-05-19T23:39:47.418Z,7.27
2019-05-19T23:42:20.039Z,6.53
2019-05-19T23:44:52.550Z,3.97
2019-05-19T23:47:25.129Z,4.10
2019-05-19T23:49:57.702Z,3.67
2019-05-19T23:52:30.055Z,3.93
2019-05-19T23:55:02.612Z,3.33
2019-05-19T23:57:34.925Z,3.17
